First Ferry Viii — VRS4306 — position and weather

sailwx.info

Track history (hours):
 
Tides and Currents Weather Stations Pressure Air Temp Water Temp Dewpoint Dewpoint Depression Visibility Wind Speed Wind Dir Waves Ship Positions

First Ferry Viii

Last reported at 2015-Jan-25 13:33 UTC. Time now 2015-Jan-25 14:19 UTC.
Position N 22°17' E 114°10'.

Length 36 m; draft 1.8 m.

Type: High speed craft. MMSI: 477995030.

Date/timePositionNaut miles runAvg speedWind from/ knotsBaromVisibWave heightAir tempDewpointWater temp
2015-Jan-25 13:33N 22°17' E 114°10'5 3.6
2015-Jan-25 12:18N 22°16' E 114°05'5 6.1
2015-Jan-25 11:33N 22°17' E 114°10'5 3.5
2015-Jan-25 10:17N 22°16' E 114°05'5 6.2
2015-Jan-25 09:33N 22°17' E 114°10'5 4.2
2015-Jan-25 08:20N 22°16' E 114°04'5 6.3
2015-Jan-25 07:34N 22°17' E 114°09'5 3.3
2015-Jan-25 06:12N 22°16' E 114°05'5 7.5
2015-Jan-25 05:34N 22°17' E 114°10'5 3.6
2015-Jan-25 04:09N 22°16' E 114°04'5 8.8
2015-Jan-25 03:34N 22°17' E 114°09'5 4.3
2015-Jan-25 02:20N 22°16' E 114°04'6 8.0
2015-Jan-25 01:33N 22°17' E 114°10'1 1.1
2015-Jan-25 00:34N 22°17' E 114°09'5 4.0
2015-Jan-24 23:18N 22°16' E 114°04'5 6.8
2015-Jan-24 22:34N 22°17' E 114°09'6 0.9
2015-Jan-24 16:06N 22°15' E 114°04'610.6
2015-Jan-24 15:33N 22°17' E 114°09'5 3.7
2015-Jan-24 14:18N 22°16' E 114°05'5 6.3
2015-Jan-24 13:33N 22°17' E 114°09'5 4.0
2015-Jan-24 12:20N 22°16' E 114°04'3 4.4
2015-Jan-24 11:33N 22°17' E 114°08'1 0.6
2015-Jan-24 10:33N 22°17' E 114°07'3 2.3
2015-Jan-24 09:06N 22°16' E 114°04'5 9.8
2015-Jan-24 08:33N 22°17' E 114°10'0 0.0
2015-Jan-24 06:33N 22°17' E 114°10'0 0.0
2015-Jan-24 04:33N 22°17' E 114°10'3 2.4
2015-Jan-24 03:31N 22°20' E 114°09'0 0.0
2015-Jan-24 02:30N 22°20' E 114°09'2 1.2
2015-Jan-24 00:33N 22°17' E 114°10'3 2.2
2015-Jan-23 23:21N 22°17' E 114°07'3 0.3
2015-Jan-23 15:33N 22°17' E 114°10'4 3.0
2015-Jan-23 14:15N 22°17' E 114°05'4 5.6
2015-Jan-23 13:33N 22°17' E 114°10'3 2.4
2015-Jan-23 12:13N 22°17' E 114°06'3 4.2
2015-Jan-23 11:34N 22°18' E 114°09'2 2.2
2015-Jan-23 10:32N 22°17' E 114°07'3 1.4
2015-Jan-23 08:32N 22°17' E 114°10'5 3.1
2015-Jan-23 07:04N 22°16' E 114°05'5 9.0
2015-Jan-23 06:34N 22°17' E 114°10'3 2.0
2015-Jan-23 05:20N 22°20' E 114°09'3 3.9
2015-Jan-23 04:33N 22°19' E 114°06'3 1.4
2015-Jan-23 02:25N 22°20' E 114°09'2 1.2
2015-Jan-23 00:34N 22°17' E 114°10'7 7.3
2015-Jan-22 23:33N 22°16' E 114°02'2 0.2
2015-Jan-22 16:07N 22°15' E 114°03'711.8
2015-Jan-22 15:33N 22°17' E 114°10'6 4.8
2015-Jan-22 14:23N 22°15' E 114°04'6 6.9
2015-Jan-22 13:33N 22°17' E 114°10'6 4.7
2015-Jan-22 12:23N 22°15' E 114°04'5 6.2
2015-Jan-22 11:34N 22°18' E 114°09'2 2.2
2015-Jan-22 10:34N 22°17' E 114°07'3 1.7
2015-Jan-22 09:04N 22°16' E 114°04'5 9.4
2015-Jan-22 08:33N 22°17' E 114°10'0 0.0
2015-Jan-22 06:31N 22°17' E 114°10'3 2.7
2015-Jan-22 05:33N 22°19' E 114°12'0 0.0
2015-Jan-22 04:33N 22°19' E 114°12'0 0.0
2015-Jan-22 03:34N 22°19' E 114°12'3 2.7
2015-Jan-22 02:29N 22°20' E 114°09'2 1.2
2015-Jan-22 00:34N 22°17' E 114°09'3 2.3
2015-Jan-21 23:22N 22°17' E 114°06'2 4.2
2015-Jan-21 22:50N 22°18' E 114°09'1 0.1
2015-Jan-21 15:33N 22°17' E 114°10'3 2.5
2015-Jan-21 14:14N 22°17' E 114°06'3 4.8
2015-Jan-21 13:33N 22°17' E 114°10'3 2.5
2015-Jan-21 12:15N 22°17' E 114°06'3 4.0
2015-Jan-21 11:34N 22°18' E 114°09'2 1.9
2015-Jan-21 10:33N 22°18' E 114°07'2 1.6
2015-Jan-21 09:04N 22°16' E 114°05'4 8.6
2015-Jan-21 08:33N 22°17' E 114°10'5 3.6
2015-Jan-21 07:06N 22°16' E 114°04'5 9.6
2015-Jan-21 06:33N 22°17' E 114°10'3 2.5
2015-Jan-21 05:34N 22°20' E 114°09'0 0.0
2015-Jan-21 04:33N 22°20' E 114°09'0 0.0
2015-Jan-21 03:28N 22°20' E 114°09'0 0.0
2015-Jan-21 02:32N 22°20' E 114°09'2 1.2
2015-Jan-21 00:34N 22°17' E 114°10'4 3.2
2015-Jan-20 23:24N 22°17' E 114°06'2 0.2
2015-Jan-20 16:03N 22°16' E 114°04'510.1
2015-Jan-20 15:33N 22°17' E 114°10'3 2.6
2015-Jan-20 14:14N 22°17' E 114°06'3 5.1
2015-Jan-20 13:33N 22°17' E 114°10'5 4.0
2015-Jan-20 12:19N 22°16' E 114°04'4 5.4
2015-Jan-20 11:34N 22°18' E 114°08'1 1.0
2015-Jan-20 10:32N 22°17' E 114°07'2 1.0
2015-Jan-20 08:33N 22°17' E 114°10'0 0.0
2015-Jan-20 06:33N 22°17' E 114°10'3 2.6
2015-Jan-20 05:33N 22°19' E 114°12'0 0.0
2015-Jan-20 04:33N 22°19' E 114°12'0 0.0
2015-Jan-20 03:33N 22°19' E 114°12'3 2.8
2015-Jan-20 02:32N 22°20' E 114°09'2 1.3
2015-Jan-20 00:33N 22°17' E 114°10'5 3.7
2015-Jan-19 23:16N 22°16' E 114°05'1 0.1
2015-Jan-19 16:05N 22°16' E 114°04'510.0
2015-Jan-19 15:34N 22°17' E 114°10'5 4.2
2015-Jan-19 14:20N 22°16' E 114°04'5 6.7
2015-Jan-19 13:33N 22°17' E 114°10'5 4.1
2015-Jan-19 12:20N 22°16' E 114°04'5 6.6
2015-Jan-19 11:33N 22°17' E 114°10'3 2.8
2015-Jan-19 10:34N 22°17' E 114°07'3 1.4
2015-Jan-19 08:32N 22°17' E 114°10'0 0.0
2015-Jan-19 06:33N 22°17' E 114°10'3 2.6
2015-Jan-19 05:33N 22°19' E 114°12'0 0.0
2015-Jan-19 04:33N 22°19' E 114°12'0 0.0
2015-Jan-19 03:33N 22°19' E 114°12'0 0.0
2015-Jan-19 02:33N 22°19' E 114°12'3 1.3
2015-Jan-19 00:33N 22°17' E 114°10'7 7.0
2015-Jan-18 23:32N 22°16' E 114°02'2 0.2
2015-Jan-18 16:17N 22°15' E 114°03'6 8.7
2015-Jan-18 15:33N 22°17' E 114°10'6 4.4
2015-Jan-18 14:19N 22°15' E 114°04'5 7.1
2015-Jan-18 13:34N 22°17' E 114°09'5 4.3
2015-Jan-18 12:20N 22°16' E 114°04'5 6.9
2015-Jan-18 11:34N 22°17' E 114°10'5 4.5
2015-Jan-18 10:20N 22°16' E 114°04'6 7.2
2015-Jan-18 09:33N 22°17' E 114°10'6 4.9
2015-Jan-18 08:21N 22°15' E 114°04'6 7.1
2015-Jan-18 07:34N 22°17' E 114°10'6 4.3
2015-Jan-18 06:15N 22°15' E 114°04'6 8.0
2015-Jan-18 05:34N 22°17' E 114°09'6 4.4
2015-Jan-18 04:11N 22°15' E 114°04'6 9.5
2015-Jan-18 03:34N 22°17' E 114°10'6 5.5
2015-Jan-18 02:23N 22°15' E 114°03'7 8.0
2015-Jan-18 01:33N 22°18' E 114°09'1 1.4
2015-Jan-18 00:33N 22°20' E 114°09'2 2.3
2015-Jan-17 23:33N 22°17' E 114°10'0 0.0
2015-Jan-17 16:33N 22°17' E 114°09'5 4.5
2015-Jan-17 15:20N 22°15' E 114°04'6 7.2
2015-Jan-17 14:34N 22°17' E 114°10'6 4.5
2015-Jan-17 13:21N 22°16' E 114°04'5 6.4
2015-Jan-17 12:33N 22°18' E 114°09'1 0.2
2015-Jan-17 09:33N 22°17' E 114°10'0 0.0
2015-Jan-17 07:33N 22°17' E 114°10'0 0.0
2015-Jan-17 05:33N 22°17' E 114°10'0 0.0
2015-Jan-17 03:34N 22°17' E 114°10'1 0.9
2015-Jan-17 02:33N 22°17' E 114°10'1 0.9
2015-Jan-17 01:34N 22°17' E 114°10'3 1.9
2015-Jan-17 00:12N 22°17' E 114°07'3 4.0
2015-Jan-16 23:34N 22°17' E 114°10'0 0.0
2015-Jan-16 16:34N 22°17' E 114°10'3 2.3
2015-Jan-16 15:12N 22°17' E 114°06'3 4.8
2015-Jan-16 14:33N 22°17' E 114°10'2 1.7
2015-Jan-16 13:11N 22°17' E 114°07'2 3.2
2015-Jan-16 12:28N 22°17' E 114°10'2 1.9
2015-Jan-16 11:13N 22°17' E 114°07'2 1.5
2015-Jan-16 09:33N 22°17' E 114°10'5 3.6
2015-Jan-16 08:08N 22°16' E 114°04'5 8.9
2015-Jan-16 07:33N 22°17' E 114°10'0 0.0
2015-Jan-16 05:33N 22°17' E 114°10'3 2.7
2015-Jan-16 04:33N 22°19' E 114°12'0 0.0
2015-Jan-16 03:33N 22°19' E 114°12'0 0.0
2015-Jan-16 02:33N 22°19' E 114°12'3 2.8
2015-Jan-16 01:33N 22°17' E 114°09'5 4.4
2015-Jan-16 00:21N 22°15' E 114°04'6 7.1
2015-Jan-15 23:34N 22°17' E 114°10'0 0.0
2015-Jan-15 16:33N 22°17' E 114°09'5 4.2
2015-Jan-15 15:20N 22°16' E 114°04'5 6.9
2015-Jan-15 14:34N 22°17' E 114°10'  
Track history (hours):
 
Tides and Currents Weather Stations Pressure Air Temp Water Temp Dewpoint Dewpoint Depression Visibility Wind Speed Wind Dir Waves Ship Positions

First Ferry Viii

Last reported at 2015-Jan-25 13:33 UTC. Time now 2015-Jan-25 14:19 UTC.
Position N 22°17' E 114°10'.

Length 36 m; draft 1.8 m.

Type: High speed craft. MMSI: 477995030.

Date/timePositionNaut miles runAvg speedWind from/ knotsBaromVisibWave heightAir tempDewpointWater temp
2015-Jan-25 13:33N 22°17' E 114°10'5 3.6
2015-Jan-25 12:18N 22°16' E 114°05'5 6.1
2015-Jan-25 11:33N 22°17' E 114°10'5 3.5
2015-Jan-25 10:17N 22°16' E 114°05'5 6.2
2015-Jan-25 09:33N 22°17' E 114°10'5 4.2
2015-Jan-25 08:20N 22°16' E 114°04'5 6.3
2015-Jan-25 07:34N 22°17' E 114°09'5 3.3
2015-Jan-25 06:12N 22°16' E 114°05'5 7.5
2015-Jan-25 05:34N 22°17' E 114°10'5 3.6
2015-Jan-25 04:09N 22°16' E 114°04'5 8.8
2015-Jan-25 03:34N 22°17' E 114°09'5 4.3
2015-Jan-25 02:20N 22°16' E 114°04'6 8.0
2015-Jan-25 01:33N 22°17' E 114°10'1 1.1
2015-Jan-25 00:34N 22°17' E 114°09'5 4.0
2015-Jan-24 23:18N 22°16' E 114°04'5 6.8
2015-Jan-24 22:34N 22°17' E 114°09'6 0.9
2015-Jan-24 16:06N 22°15' E 114°04'610.6
2015-Jan-24 15:33N 22°17' E 114°09'5 3.7
2015-Jan-24 14:18N 22°16' E 114°05'5 6.3
2015-Jan-24 13:33N 22°17' E 114°09'5 4.0
2015-Jan-24 12:20N 22°16' E 114°04'3 4.4
2015-Jan-24 11:33N 22°17' E 114°08'1 0.6
2015-Jan-24 10:33N 22°17' E 114°07'3 2.3
2015-Jan-24 09:06N 22°16' E 114°04'5 9.8
2015-Jan-24 08:33N 22°17' E 114°10'0 0.0
2015-Jan-24 06:33N 22°17' E 114°10'0 0.0
2015-Jan-24 04:33N 22°17' E 114°10'3 2.4
2015-Jan-24 03:31N 22°20' E 114°09'0 0.0
2015-Jan-24 02:30N 22°20' E 114°09'2 1.2
2015-Jan-24 00:33N 22°17' E 114°10'3 2.2
2015-Jan-23 23:21N 22°17' E 114°07'3 0.3
2015-Jan-23 15:33N 22°17' E 114°10'4 3.0
2015-Jan-23 14:15N 22°17' E 114°05'4 5.6
2015-Jan-23 13:33N 22°17' E 114°10'3 2.4
2015-Jan-23 12:13N 22°17' E 114°06'3 4.2
2015-Jan-23 11:34N 22°18' E 114°09'2 2.2
2015-Jan-23 10:32N 22°17' E 114°07'3 1.4
2015-Jan-23 08:32N 22°17' E 114°10'5 3.1
2015-Jan-23 07:04N 22°16' E 114°05'5 9.0
2015-Jan-23 06:34N 22°17' E 114°10'3 2.0
2015-Jan-23 05:20N 22°20' E 114°09'3 3.9
2015-Jan-23 04:33N 22°19' E 114°06'3 1.4
2015-Jan-23 02:25N 22°20' E 114°09'2 1.2
2015-Jan-23 00:34N 22°17' E 114°10'7 7.3
2015-Jan-22 23:33N 22°16' E 114°02'2 0.2
2015-Jan-22 16:07N 22°15' E 114°03'711.8
2015-Jan-22 15:33N 22°17' E 114°10'6 4.8
2015-Jan-22 14:23N 22°15' E 114°04'6 6.9
2015-Jan-22 13:33N 22°17' E 114°10'6 4.7
2015-Jan-22 12:23N 22°15' E 114°04'5 6.2
2015-Jan-22 11:34N 22°18' E 114°09'2 2.2
2015-Jan-22 10:34N 22°17' E 114°07'3 1.7
2015-Jan-22 09:04N 22°16' E 114°04'5 9.4
2015-Jan-22 08:33N 22°17' E 114°10'0 0.0
2015-Jan-22 06:31N 22°17' E 114°10'3 2.7
2015-Jan-22 05:33N 22°19' E 114°12'0 0.0
2015-Jan-22 04:33N 22°19' E 114°12'0 0.0
2015-Jan-22 03:34N 22°19' E 114°12'3 2.7
2015-Jan-22 02:29N 22°20' E 114°09'2 1.2
2015-Jan-22 00:34N 22°17' E 114°09'3 2.3
2015-Jan-21 23:22N 22°17' E 114°06'2 4.2
2015-Jan-21 22:50N 22°18' E 114°09'1 0.1
2015-Jan-21 15:33N 22°17' E 114°10'3 2.5
2015-Jan-21 14:14N 22°17' E 114°06'3 4.8
2015-Jan-21 13:33N 22°17' E 114°10'3 2.5
2015-Jan-21 12:15N 22°17' E 114°06'3 4.0
2015-Jan-21 11:34N 22°18' E 114°09'2 1.9
2015-Jan-21 10:33N 22°18' E 114°07'2 1.6
2015-Jan-21 09:04N 22°16' E 114°05'4 8.6
2015-Jan-21 08:33N 22°17' E 114°10'5 3.6
2015-Jan-21 07:06N 22°16' E 114°04'5 9.6
2015-Jan-21 06:33N 22°17' E 114°10'3 2.5
2015-Jan-21 05:34N 22°20' E 114°09'0 0.0
2015-Jan-21 04:33N 22°20' E 114°09'0 0.0
2015-Jan-21 03:28N 22°20' E 114°09'0 0.0
2015-Jan-21 02:32N 22°20' E 114°09'2 1.2
2015-Jan-21 00:34N 22°17' E 114°10'4 3.2
2015-Jan-20 23:24N 22°17' E 114°06'2 0.2
2015-Jan-20 16:03N 22°16' E 114°04'510.1
2015-Jan-20 15:33N 22°17' E 114°10'3 2.6
2015-Jan-20 14:14N 22°17' E 114°06'3 5.1
2015-Jan-20 13:33N 22°17' E 114°10'5 4.0
2015-Jan-20 12:19N 22°16' E 114°04'4 5.4
2015-Jan-20 11:34N 22°18' E 114°08'1 1.0
2015-Jan-20 10:32N 22°17' E 114°07'2 1.0
2015-Jan-20 08:33N 22°17' E 114°10'0 0.0
2015-Jan-20 06:33N 22°17' E 114°10'3 2.6
2015-Jan-20 05:33N 22°19' E 114°12'0 0.0
2015-Jan-20 04:33N 22°19' E 114°12'0 0.0
2015-Jan-20 03:33N 22°19' E 114°12'3 2.8
2015-Jan-20 02:32N 22°20' E 114°09'2 1.3
2015-Jan-20 00:33N 22°17' E 114°10'5 3.7
2015-Jan-19 23:16N 22°16' E 114°05'1 0.1
2015-Jan-19 16:05N 22°16' E 114°04'510.0
2015-Jan-19 15:34N 22°17' E 114°10'5 4.2
2015-Jan-19 14:20N 22°16' E 114°04'5 6.7
2015-Jan-19 13:33N 22°17' E 114°10'5 4.1
2015-Jan-19 12:20N 22°16' E 114°04'5 6.6
2015-Jan-19 11:33N 22°17' E 114°10'3 2.8
2015-Jan-19 10:34N 22°17' E 114°07'3 1.4
2015-Jan-19 08:32N 22°17' E 114°10'0 0.0
2015-Jan-19 06:33N 22°17' E 114°10'3 2.6
2015-Jan-19 05:33N 22°19' E 114°12'0 0.0
2015-Jan-19 04:33N 22°19' E 114°12'0 0.0
2015-Jan-19 03:33N 22°19' E 114°12'0 0.0
2015-Jan-19 02:33N 22°19' E 114°12'3 1.3
2015-Jan-19 00:33N 22°17' E 114°10'7 7.0
2015-Jan-18 23:32N 22°16' E 114°02'2 0.2
2015-Jan-18 16:17N 22°15' E 114°03'6 8.7
2015-Jan-18 15:33N 22°17' E 114°10'6 4.4
2015-Jan-18 14:19N 22°15' E 114°04'5 7.1
2015-Jan-18 13:34N 22°17' E 114°09'5 4.3
2015-Jan-18 12:20N 22°16' E 114°04'5 6.9
2015-Jan-18 11:34N 22°17' E 114°10'5 4.5
2015-Jan-18 10:20N 22°16' E 114°04'6 7.2
2015-Jan-18 09:33N 22°17' E 114°10'6 4.9
2015-Jan-18 08:21N 22°15' E 114°04'6 7.1
2015-Jan-18 07:34N 22°17' E 114°10'6 4.3
2015-Jan-18 06:15N 22°15' E 114°04'6 8.0
2015-Jan-18 05:34N 22°17' E 114°09'6 4.4
2015-Jan-18 04:11N 22°15' E 114°04'6 9.5
2015-Jan-18 03:34N 22°17' E 114°10'6 5.5
2015-Jan-18 02:23N 22°15' E 114°03'7 8.0
2015-Jan-18 01:33N 22°18' E 114°09'1 1.4
2015-Jan-18 00:33N 22°20' E 114°09'2 2.3
2015-Jan-17 23:33N 22°17' E 114°10'0 0.0
2015-Jan-17 16:33N 22°17' E 114°09'5 4.5
2015-Jan-17 15:20N 22°15' E 114°04'6 7.2
2015-Jan-17 14:34N 22°17' E 114°10'6 4.5
2015-Jan-17 13:21N 22°16' E 114°04'5 6.4
2015-Jan-17 12:33N 22°18' E 114°09'1 0.2
2015-Jan-17 09:33N 22°17' E 114°10'0 0.0
2015-Jan-17 07:33N 22°17' E 114°10'0 0.0
2015-Jan-17 05:33N 22°17' E 114°10'0 0.0
2015-Jan-17 03:34N 22°17' E 114°10'1 0.9
2015-Jan-17 02:33N 22°17' E 114°10'1 0.9
2015-Jan-17 01:34N 22°17' E 114°10'3 1.9
2015-Jan-17 00:12N 22°17' E 114°07'3 4.0
2015-Jan-16 23:34N 22°17' E 114°10'0 0.0
2015-Jan-16 16:34N 22°17' E 114°10'3 2.3
2015-Jan-16 15:12N 22°17' E 114°06'3 4.8
2015-Jan-16 14:33N 22°17' E 114°10'2 1.7
2015-Jan-16 13:11N 22°17' E 114°07'2 3.2
2015-Jan-16 12:28N 22°17' E 114°10'2 1.9
2015-Jan-16 11:13N 22°17' E 114°07'2 1.5
2015-Jan-16 09:33N 22°17' E 114°10'5 3.6
2015-Jan-16 08:08N 22°16' E 114°04'5 8.9
2015-Jan-16 07:33N 22°17' E 114°10'0 0.0
2015-Jan-16 05:33N 22°17' E 114°10'3 2.7
2015-Jan-16 04:33N 22°19' E 114°12'0 0.0
2015-Jan-16 03:33N 22°19' E 114°12'0 0.0
2015-Jan-16 02:33N 22°19' E 114°12'3 2.8
2015-Jan-16 01:33N 22°17' E 114°09'5 4.4
2015-Jan-16 00:21N 22°15' E 114°04'6 7.1
2015-Jan-15 23:34N 22°17' E 114°10'0 0.0
2015-Jan-15 16:33N 22°17' E 114°09'5 4.2
2015-Jan-15 15:20N 22°16' E 114°04'5 6.9
2015-Jan-15 14:34N 22°17' E 114°10'  

Dump ship's entire track history